Terminal Aerodrome Forecast
Issued by NWS

Home | Current Version | Previous Version | Text Only | Print | Product List | Glossary On
Versions: 1 2 3 4 5 6 7 8 9 10 11 12 13 14
000
FTUS44 KOUN 211721
TAFPNC
TAF
KPNC 211721Z 2118/2218 07011KT 5SM -RA BR OVC009
     FM212000 05011KT 6SM -RA BR OVC007
     FM220200 34007KT 5SM BR OVC004=

USA.gov is the U.S. government's official web portal to all federal, state and local government web resources and services.